createdAt,value
2024-03-25T00:03:11.765Z,60.73
2024-03-25T00:08:14.724Z,60.01
2024-03-25T00:13:17.629Z,59.59
2024-03-25T00:18:20.486Z,59.32
2024-03-25T00:23:23.351Z,59.10
2024-03-25T00:28:26.422Z,58.82
2024-03-25T00:33:29.380Z,58.53
2024-03-25T00:38:32.758Z,58.21
2024-03-25T00:43:35.651Z,58.08
2024-03-25T00:48:39.462Z,57.69
2024-03-25T00:53:43.283Z,57.66
2024-03-25T00:58:47.507Z,57.59
2024-03-25T01:03:50.371Z,57.48
2024-03-25T01:08:53.737Z,57.25
2024-03-25T01:13:56.786Z,57.49
2024-03-25T01:19:00.111Z,57.40
2024-03-25T01:24:03.343Z,57.40
2024-03-25T01:29:06.292Z,57.52
2024-03-25T01:34:09.136Z,57.60
2024-03-25T01:39:11.990Z,57.54
2024-03-25T01:44:14.832Z,57.66
2024-03-25T01:49:17.732Z,57.71
2024-03-25T01:54:21.033Z,57.82
2024-03-25T01:59:24.675Z,58.12
2024-03-25T02:04:28.267Z,58.28
2024-03-25T02:09:31.409Z,58.26
2024-03-25T02:14:34.406Z,58.64
2024-03-25T02:19:40.292Z,58.85
2024-03-25T02:24:44.939Z,59.03
2024-03-25T02:29:48.486Z,59.29
2024-03-25T02:34:52.924Z,59.41
2024-03-25T02:39:58.664Z,59.42
2024-03-25T02:45:01.467Z,59.46
2024-03-25T02:50:05.059Z,59.82
2024-03-25T02:55:08.167Z,60.09
2024-03-25T03:00:11.630Z,60.36
2024-03-25T03:05:14.599Z,60.42
2024-03-25T03:10:17.540Z,60.65
2024-03-25T03:15:20.415Z,60.82
2024-03-25T03:20:23.413Z,60.80
2024-03-25T03:25:26.399Z,60.88
2024-03-25T03:30:29.768Z,60.91
2024-03-25T03:35:37.230Z,60.85
2024-03-25T03:40:40.197Z,60.83
2024-03-25T03:45:43.054Z,60.97
2024-03-25T03:50:46.345Z,60.93
2024-03-25T03:55:56.391Z,61.11
2024-03-25T04:00:59.542Z,61.22
2024-03-25T04:06:09.202Z,61.52
2024-03-25T04:11:12.425Z,61.68
2024-03-25T04:16:15.651Z,61.68
2024-03-25T04:21:18.470Z,61.46
2024-03-25T04:26:21.351Z,61.31
2024-03-25T04:31:24.715Z,61.17
2024-03-25T04:36:28.923Z,60.96
2024-03-25T04:41:32.794Z,60.87
2024-03-25T04:46:35.640Z,60.70
2024-03-25T04:51:38.674Z,61.27
2024-03-25T04:56:41.848Z,61.12
2024-03-25T05:01:46.977Z,60.92
2024-03-25T05:06:49.972Z,61.68
2024-03-25T05:11:52.907Z,60.68
2024-03-25T05:16:55.852Z,60.34
2024-03-25T05:21:58.719Z,60.24
2024-03-25T05:27:02.236Z,60.18
2024-03-25T05:32:05.910Z,59.89
2024-03-25T05:37:10.230Z,59.42
2024-03-25T05:42:13.179Z,59.03
2024-03-25T05:47:16.050Z,59.84
2024-03-25T05:52:18.920Z,58.92
2024-03-25T05:57:21.926Z,58.69
2024-03-25T06:02:25.393Z,58.62
2024-03-25T06:07:28.230Z,57.42
2024-03-25T06:12:31.166Z,57.02
2024-03-25T06:17:34.212Z,57.03
2024-03-25T06:22:37.175Z,57.60
2024-03-25T06:27:39.988Z,58.18
2024-03-25T06:33:01.420Z,58.68
2024-03-25T06:38:04.780Z,59.79
2024-03-25T06:43:07.814Z,59.42
2024-03-25T06:48:11.056Z,59.50
2024-03-25T06:53:14.900Z,59.86
2024-03-25T06:58:18.483Z,60.35
2024-03-25T07:03:24.133Z,60.91
2024-03-25T07:08:28.485Z,61.32
2024-03-25T07:13:31.681Z,61.33
2024-03-25T07:18:35.213Z,60.94
2024-03-25T07:23:38.092Z,60.94
2024-03-25T07:28:40.967Z,61.04
2024-03-25T07:33:44.008Z,61.05
2024-03-25T07:38:46.937Z,61.05
2024-03-25T07:43:50.195Z,61.16
2024-03-25T07:48:53.187Z,61.38
2024-03-25T07:53:56.130Z,61.56
2024-03-25T07:59:00.850Z,62.03
2024-03-25T08:04:03.983Z,62.27
2024-03-25T08:09:06.817Z,62.54
2024-03-25T08:14:09.818Z,63.26
2024-03-25T08:19:13.190Z,64.09
2024-03-25T08:24:16.910Z,63.93
2024-03-25T08:29:19.810Z,64.51
2024-03-25T08:34:22.831Z,65.35
2024-03-25T08:39:25.912Z,65.73
2024-03-25T08:44:28.892Z,66.17
2024-03-25T08:49:31.845Z,66.39
2024-03-25T08:54:34.734Z,66.74
2024-03-25T08:59:37.833Z,67.30
2024-03-25T09:04:40.822Z,66.98
2024-03-25T09:10:01.897Z,66.24
2024-03-25T09:15:05.566Z,65.90
2024-03-25T09:20:17.439Z,65.73
2024-03-25T09:25:20.795Z,64.85
2024-03-25T09:30:23.764Z,64.33
2024-03-25T09:35:26.856Z,64.16
2024-03-25T09:40:30.620Z,63.91
2024-03-25T09:45:35.025Z,63.51
2024-03-25T09:50:38.319Z,63.27
2024-03-25T09:55:41.309Z,62.74
2024-03-25T10:00:44.243Z,62.73
2024-03-25T10:05:47.642Z,63.29
2024-03-25T10:10:52.614Z,64.30
2024-03-25T10:15:56.437Z,65.36
2024-03-25T10:20:59.372Z,65.95
2024-03-25T10:26:02.456Z,65.23
2024-03-25T10:31:06.817Z,64.68
2024-03-25T10:36:10.522Z,65.00
2024-03-25T10:41:18.081Z,63.76
2024-03-25T10:46:23.328Z,63.43
2024-03-25T10:51:27.917Z,62.89
2024-03-25T10:56:30.864Z,62.52
2024-03-25T11:01:34.512Z,62.31
2024-03-25T11:06:37.434Z,62.04
2024-03-25T11:11:40.416Z,60.88
2024-03-25T11:16:43.321Z,59.80
2024-03-25T11:21:46.389Z,58.81
2024-03-25T11:26:54.133Z,57.48
2024-03-25T11:32:01.339Z,57.18
2024-03-25T11:37:05.547Z,57.47
2024-03-25T11:42:10.189Z,59.86
2024-03-25T11:47:13.870Z,61.75
2024-03-25T11:52:19.163Z,63.07
2024-03-25T11:57:23.881Z,64.17
2024-03-25T12:02:27.665Z,64.94
2024-03-25T12:07:30.573Z,65.89
2024-03-25T12:12:34.332Z,64.42
2024-03-25T12:17:38.212Z,62.27
2024-03-25T12:22:41.785Z,62.63
2024-03-25T12:27:47.465Z,62.36
2024-03-25T12:32:51.996Z,60.22
2024-03-25T12:37:56.016Z,58.92
2024-03-25T12:42:58.971Z,57.99
2024-03-25T12:48:02.029Z,58.49
2024-03-25T12:53:05.377Z,59.93
2024-03-25T12:58:08.525Z,60.09
2024-03-25T13:03:12.941Z,60.46
2024-03-25T13:08:18.702Z,61.52
2024-03-25T13:13:22.168Z,61.86
2024-03-25T13:18:25.727Z,61.70
2024-03-25T13:23:28.608Z,59.48
2024-03-25T13:28:31.629Z,59.09
2024-03-25T13:33:34.628Z,57.17
2024-03-25T13:38:37.933Z,56.86
2024-03-25T13:43:44.268Z,54.87
2024-03-25T13:48:49.001Z,54.37
2024-03-25T13:53:51.981Z,56.08
2024-03-25T13:58:56.337Z,57.52
2024-03-25T14:03:59.421Z,58.10
2024-03-25T14:09:02.568Z,59.43
2024-03-25T14:14:05.673Z,61.08
2024-03-25T14:19:08.822Z,62.70
2024-03-25T14:24:11.781Z,63.28
2024-03-25T14:29:15.136Z,63.92
2024-03-25T14:34:18.058Z,63.62
2024-03-25T14:39:21.254Z,63.05
2024-03-25T14:44:24.384Z,62.60
2024-03-25T14:49:27.659Z,62.60
2024-03-25T14:54:39.228Z,63.13
2024-03-25T14:59:42.302Z,63.22
2024-03-25T15:04:45.560Z,62.99
2024-03-25T15:09:48.515Z,62.46
2024-03-25T15:14:51.437Z,61.64
2024-03-25T15:19:54.432Z,60.78
2024-03-25T15:24:57.452Z,60.83
2024-03-25T15:30:00.443Z,60.87
2024-03-25T15:35:04.180Z,60.81
2024-03-25T15:40:10.525Z,61.43
2024-03-25T15:45:13.528Z,61.46
2024-03-25T15:50:16.625Z,61.68
2024-03-25T15:55:20.083Z,61.54
2024-03-25T16:00:23.130Z,61.46
2024-03-25T16:05:26.292Z,62.08
2024-03-25T16:10:37.043Z,61.93
2024-03-25T16:15:39.992Z,61.79
2024-03-25T16:20:43.312Z,61.96
2024-03-25T16:25:46.345Z,62.10
2024-03-25T16:30:49.372Z,62.42
2024-03-25T16:35:52.683Z,62.71
2024-03-25T16:40:55.927Z,62.78
2024-03-25T16:45:59.733Z,62.67
2024-03-25T16:51:02.836Z,62.59
2024-03-25T16:56:07.775Z,62.62
2024-03-25T17:01:10.810Z,63.14
2024-03-25T17:06:13.922Z,62.72
2024-03-25T17:11:17.310Z,63.23
2024-03-25T17:16:20.305Z,64.06
2024-03-25T17:21:24.149Z,63.99
2024-03-25T17:26:27.266Z,64.44
2024-03-25T17:31:30.354Z,64.02
2024-03-25T17:36:33.582Z,64.19
2024-03-25T17:41:38.920Z,64.18
2024-03-25T17:46:43.134Z,64.40
2024-03-25T17:51:46.160Z,64.73
2024-03-25T17:56:49.252Z,64.55
2024-03-25T18:01:54.700Z,65.29
2024-03-25T18:06:59.751Z,64.75
2024-03-25T18:12:10.349Z,64.24
2024-03-25T18:17:18.436Z,64.06
2024-03-25T18:22:24.737Z,63.99
2024-03-25T18:27:34.739Z,65.11
2024-03-25T18:33:05.069Z,65.28
2024-03-25T18:38:29.419Z,65.95
2024-03-25T18:43:45.050Z,66.54
2024-03-25T18:48:54.092Z,67.23
2024-03-25T18:53:58.643Z,67.67
2024-03-25T18:59:01.610Z,68.09
2024-03-25T19:04:07.499Z,68.37
2024-03-25T19:09:12.232Z,68.53
2024-03-25T19:14:26.167Z,68.64
2024-03-25T19:19:30.926Z,68.61
2024-03-25T19:25:05.472Z,68.58
2024-03-25T19:30:11.232Z,68.58
2024-03-25T19:35:14.437Z,71.83
2024-03-25T19:40:17.476Z,70.39
2024-03-25T19:45:20.897Z,68.62
2024-03-25T19:50:23.831Z,68.42
2024-03-25T19:55:28.139Z,68.53
2024-03-25T20:00:31.406Z,68.55
2024-03-25T20:05:34.440Z,68.61
2024-03-25T20:10:37.556Z,68.57
2024-03-25T20:15:40.680Z,69.56
2024-03-25T20:20:46.340Z,71.12
2024-03-25T20:25:49.728Z,68.96
2024-03-25T20:30:52.695Z,68.32
2024-03-25T20:35:55.876Z,68.47
2024-03-25T20:40:58.890Z,68.17
2024-03-25T20:46:02.085Z,68.29
2024-03-25T20:51:05.392Z,68.48
2024-03-25T20:56:08.357Z,68.68
2024-03-25T21:01:11.274Z,68.69
2024-03-25T21:06:14.338Z,68.79
2024-03-25T21:11:17.497Z,68.70
2024-03-25T21:16:20.655Z,68.54
2024-03-25T21:21:23.557Z,68.58
2024-03-25T21:26:26.566Z,68.75
2024-03-25T21:31:29.826Z,68.53
2024-03-25T21:36:32.877Z,68.47
2024-03-25T21:41:36.823Z,68.45
2024-03-25T21:46:40.125Z,68.22
2024-03-25T21:51:43.045Z,68.46
2024-03-25T21:56:45.931Z,68.57
2024-03-25T22:01:48.927Z,68.58
2024-03-25T22:06:51.996Z,68.64
2024-03-25T22:11:54.905Z,68.79
2024-03-25T22:16:57.891Z,68.90
2024-03-25T22:22:00.775Z,69.03
2024-03-25T22:27:04.392Z,69.17
2024-03-25T22:32:08.050Z,69.36
2024-03-25T22:37:11.110Z,69.41
2024-03-25T22:42:14.479Z,69.49
2024-03-25T22:47:17.631Z,69.47
2024-03-25T22:52:21.196Z,69.51
2024-03-25T22:57:24.316Z,69.54
2024-03-25T23:02:27.269Z,69.78
2024-03-25T23:07:30.235Z,70.32
2024-03-25T23:12:33.216Z,69.93
2024-03-25T23:17:36.102Z,70.00
2024-03-25T23:22:39.007Z,70.25
2024-03-25T23:27:41.863Z,70.20
2024-03-25T23:32:44.773Z,70.17
2024-03-25T23:37:47.625Z,70.15
2024-03-25T23:42:50.476Z,70.59
2024-03-25T23:47:55.231Z,70.91
2024-03-25T23:52:58.240Z,71.11
2024-03-25T23:58:01.085Z,70.96
